sensor_id;sensor_type;location;lat;lon;timestamp;P1;durP1;ratioP1;P2;durP2;ratioP2
16800;SDS011;8518;53.236;10.384;2024-01-30T00:00:18;8.17;;;5.27;;
16800;SDS011;8518;53.236;10.384;2024-01-30T00:02:44;7.83;;;5.50;;
16800;SDS011;8518;53.236;10.384;2024-01-30T00:05:10;9.63;;;6.67;;
16800;SDS011;8518;53.236;10.384;2024-01-30T00:07:39;7.23;;;5.33;;
16800;SDS011;8518;53.236;10.384;2024-01-30T00:10:05;5.73;;;5.17;;
16800;SDS011;8518;53.236;10.384;2024-01-30T00:12:33;6.40;;;5.20;;
16800;SDS011;8518;53.236;10.384;2024-01-30T00:15:01;7.77;;;6.00;;
16800;SDS011;8518;53.236;10.384;2024-01-30T00:17:30;8.33;;;6.23;;
16800;SDS011;8518;53.236;10.384;2024-01-30T00:23:18;5.93;;;5.20;;
16800;SDS011;8518;53.236;10.384;2024-01-30T00:25:47;7.00;;;6.13;;
16800;SDS011;8518;53.236;10.384;2024-01-30T00:28:12;6.93;;;5.80;;
16800;SDS011;8518;53.236;10.384;2024-01-30T00:30:38;8.33;;;5.93;;
16800;SDS011;8518;53.236;10.384;2024-01-30T00:33:03;7.97;;;5.40;;
16800;SDS011;8518;53.236;10.384;2024-01-30T00:35:33;7.70;;;6.17;;
16800;SDS011;8518;53.236;10.384;2024-01-30T00:37:58;8.37;;;5.50;;
16800;SDS011;8518;53.236;10.384;2024-01-30T00:40:24;8.03;;;5.60;;
16800;SDS011;8518;53.236;10.384;2024-01-30T00:42:49;7.23;;;5.60;;
16800;SDS011;8518;53.236;10.384;2024-01-30T00:45:15;8.47;;;5.70;;
16800;SDS011;8518;53.236;10.384;2024-01-30T00:47:41;8.37;;;6.50;;
16800;SDS011;8518;53.236;10.384;2024-01-30T00:53:29;7.90;;;5.90;;
16800;SDS011;8518;53.236;10.384;2024-01-30T00:55:58;7.73;;;5.90;;
16800;SDS011;8518;53.236;10.384;2024-01-30T01:01:45;7.80;;;5.60;;
16800;SDS011;8518;53.236;10.384;2024-01-30T01:04:20;9.20;;;6.20;;
16800;SDS011;8518;53.236;10.384;2024-01-30T01:06:48;7.53;;;5.83;;
16800;SDS011;8518;53.236;10.384;2024-01-30T01:09:14;7.03;;;6.10;;
16800;SDS011;8518;53.236;10.384;2024-01-30T01:11:43;8.67;;;5.80;;
16800;SDS011;8518;53.236;10.384;2024-01-30T01:14:09;9.17;;;6.00;;
16800;SDS011;8518;53.236;10.384;2024-01-30T01:16:34;7.67;;;6.23;;
16800;SDS011;8518;53.236;10.384;2024-01-30T01:22:22;7.67;;;6.47;;
16800;SDS011;8518;53.236;10.384;2024-01-30T01:24:47;8.97;;;6.10;;
16800;SDS011;8518;53.236;10.384;2024-01-30T01:27:16;7.33;;;5.53;;
16800;SDS011;8518;53.236;10.384;2024-01-30T01:33:04;8.17;;;5.77;;
16800;SDS011;8518;53.236;10.384;2024-01-30T01:35:29;9.10;;;6.10;;
16800;SDS011;8518;53.236;10.384;2024-01-30T01:37:58;7.13;;;5.97;;
16800;SDS011;8518;53.236;10.384;2024-01-30T01:40:28;6.83;;;5.70;;
16800;SDS011;8518;53.236;10.384;2024-01-30T01:42:55;8.70;;;6.70;;
16800;SDS011;8518;53.236;10.384;2024-01-30T01:45:21;7.00;;;5.97;;
16800;SDS011;8518;53.236;10.384;2024-01-30T01:47:50;9.53;;;6.67;;
16800;SDS011;8518;53.236;10.384;2024-01-30T01:53:39;6.73;;;5.57;;
16800;SDS011;8518;53.236;10.384;2024-01-30T01:59:26;6.60;;;5.80;;
16800;SDS011;8518;53.236;10.384;2024-01-30T02:01:54;9.47;;;6.10;;
16800;SDS011;8518;53.236;10.384;2024-01-30T02:04:21;8.27;;;5.80;;
16800;SDS011;8518;53.236;10.384;2024-01-30T02:06:47;6.80;;;5.60;;
16800;SDS011;8518;53.236;10.384;2024-01-30T02:09:13;7.70;;;5.87;;
16800;SDS011;8518;53.236;10.384;2024-01-30T02:11:41;6.73;;;6.03;;
16800;SDS011;8518;53.236;10.384;2024-01-30T02:14:11;8.27;;;6.53;;
16800;SDS011;8518;53.236;10.384;2024-01-30T02:16:36;6.93;;;5.73;;
16800;SDS011;8518;53.236;10.384;2024-01-30T02:22:26;7.20;;;5.83;;
16800;SDS011;8518;53.236;10.384;2024-01-30T02:24:51;8.33;;;6.90;;
16800;SDS011;8518;53.236;10.384;2024-01-30T02:27:18;7.93;;;6.67;;
16800;SDS011;8518;53.236;10.384;2024-01-30T02:33:07;9.67;;;6.80;;
16800;SDS011;8518;53.236;10.384;2024-01-30T02:35:34;8.57;;;6.63;;
16800;SDS011;8518;53.236;10.384;2024-01-30T02:38:02;11.33;;;7.03;;
16800;SDS011;8518;53.236;10.384;2024-01-30T02:40:28;8.90;;;6.63;;
16800;SDS011;8518;53.236;10.384;2024-01-30T02:42:55;8.73;;;7.17;;
16800;SDS011;8518;53.236;10.384;2024-01-30T02:45:24;10.20;;;7.30;;
16800;SDS011;8518;53.236;10.384;2024-01-30T02:47:52;8.13;;;7.30;;
16800;SDS011;8518;53.236;10.384;2024-01-30T02:50:18;10.13;;;6.90;;
16800;SDS011;8518;53.236;10.384;2024-01-30T02:52:43;9.57;;;6.90;;
16800;SDS011;8518;53.236;10.384;2024-01-30T02:55:09;9.07;;;7.07;;
16800;SDS011;8518;53.236;10.384;2024-01-30T02:57:43;10.37;;;7.10;;
16800;SDS011;8518;53.236;10.384;2024-01-30T03:03:30;9.93;;;7.57;;
16800;SDS011;8518;53.236;10.384;2024-01-30T03:05:56;7.77;;;6.67;;
16800;SDS011;8518;53.236;10.384;2024-01-30T03:08:21;9.40;;;7.40;;
16800;SDS011;8518;53.236;10.384;2024-01-30T03:10:47;9.00;;;7.20;;
16800;SDS011;8518;53.236;10.384;2024-01-30T03:13:12;9.07;;;6.90;;
16800;SDS011;8518;53.236;10.384;2024-01-30T03:15:38;8.90;;;7.50;;
16800;SDS011;8518;53.236;10.384;2024-01-30T03:18:06;10.57;;;7.47;;
16800;SDS011;8518;53.236;10.384;2024-01-30T03:20:32;10.67;;;7.70;;
16800;SDS011;8518;53.236;10.384;2024-01-30T03:22:59;11.20;;;7.23;;
16800;SDS011;8518;53.236;10.384;2024-01-30T03:25:25;11.37;;;7.93;;
16800;SDS011;8518;53.236;10.384;2024-01-30T03:27:50;9.53;;;7.73;;
16800;SDS011;8518;53.236;10.384;2024-01-30T03:30:16;8.90;;;7.20;;
16800;SDS011;8518;53.236;10.384;2024-01-30T03:32:42;9.83;;;7.50;;
16800;SDS011;8518;53.236;10.384;2024-01-30T03:35:09;7.87;;;6.80;;
16800;SDS011;8518;53.236;10.384;2024-01-30T03:37:35;8.83;;;7.20;;
16800;SDS011;8518;53.236;10.384;2024-01-30T03:43:22;8.70;;;7.30;;
16800;SDS011;8518;53.236;10.384;2024-01-30T03:45:48;9.07;;;7.47;;
16800;SDS011;8518;53.236;10.384;2024-01-30T03:48:14;9.87;;;6.97;;
16800;SDS011;8518;53.236;10.384;2024-01-30T03:50:40;10.60;;;8.00;;
16800;SDS011;8518;53.236;10.384;2024-01-30T03:53:06;8.77;;;7.20;;
16800;SDS011;8518;53.236;10.384;2024-01-30T03:55:31;9.37;;;7.67;;
16800;SDS011;8518;53.236;10.384;2024-01-30T03:57:57;10.17;;;7.33;;
16800;SDS011;8518;53.236;10.384;2024-01-30T04:00:22;8.37;;;7.07;;
16800;SDS011;8518;53.236;10.384;2024-01-30T04:02:48;10.90;;;7.23;;
16800;SDS011;8518;53.236;10.384;2024-01-30T04:05:16;11.77;;;7.93;;
16800;SDS011;8518;53.236;10.384;2024-01-30T04:07:44;10.00;;;7.30;;
16800;SDS011;8518;53.236;10.384;2024-01-30T04:10:13;9.63;;;7.13;;
16800;SDS011;8518;53.236;10.384;2024-01-30T04:12:38;10.27;;;7.83;;
16800;SDS011;8518;53.236;10.384;2024-01-30T04:15:04;8.70;;;7.10;;
16800;SDS011;8518;53.236;10.384;2024-01-30T04:17:33;9.33;;;6.87;;
16800;SDS011;8518;53.236;10.384;2024-01-30T04:23:20;12.27;;;8.30;;
16800;SDS011;8518;53.236;10.384;2024-01-30T04:25:46;11.33;;;7.97;;
16800;SDS011;8518;53.236;10.384;2024-01-30T04:28:14;9.07;;;7.67;;
16800;SDS011;8518;53.236;10.384;2024-01-30T04:30:43;9.53;;;7.87;;
16800;SDS011;8518;53.236;10.384;2024-01-30T04:33:10;9.60;;;8.07;;
16800;SDS011;8518;53.236;10.384;2024-01-30T04:35:38;9.73;;;8.20;;
16800;SDS011;8518;53.236;10.384;2024-01-30T04:38:04;10.50;;;7.93;;
16800;SDS011;8518;53.236;10.384;2024-01-30T04:40:30;9.73;;;7.93;;
16800;SDS011;8518;53.236;10.384;2024-01-30T04:42:58;13.90;;;8.40;;
16800;SDS011;8518;53.236;10.384;2024-01-30T04:45:26;11.07;;;8.63;;
16800;SDS011;8518;53.236;10.384;2024-01-30T04:47:52;10.00;;;7.87;;
16800;SDS011;8518;53.236;10.384;2024-01-30T04:50:17;10.10;;;7.63;;
16800;SDS011;8518;53.236;10.384;2024-01-30T04:52:46;10.53;;;8.50;;
16800;SDS011;8518;53.236;10.384;2024-01-30T04:55:11;12.70;;;9.57;;
16800;SDS011;8518;53.236;10.384;2024-01-30T04:57:37;11.17;;;8.27;;
16800;SDS011;8518;53.236;10.384;2024-01-30T05:03:33;12.00;;;8.80;;
16800;SDS011;8518;53.236;10.384;2024-01-30T05:05:59;10.60;;;8.97;;
16800;SDS011;8518;53.236;10.384;2024-01-30T05:08:25;10.30;;;8.27;;
16800;SDS011;8518;53.236;10.384;2024-01-30T05:10:50;10.33;;;8.40;;
16800;SDS011;8518;53.236;10.384;2024-01-30T05:13:16;14.13;;;8.77;;
16800;SDS011;8518;53.236;10.384;2024-01-30T05:15:41;12.03;;;8.70;;
16800;SDS011;8518;53.236;10.384;2024-01-30T05:18:07;13.10;;;8.67;;
16800;SDS011;8518;53.236;10.384;2024-01-30T05:20:33;13.60;;;8.93;;
16800;SDS011;8518;53.236;10.384;2024-01-30T05:23:01;13.13;;;9.40;;
16800;SDS011;8518;53.236;10.384;2024-01-30T05:25:29;11.90;;;8.80;;
16800;SDS011;8518;53.236;10.384;2024-01-30T05:27:55;11.87;;;9.23;;
16800;SDS011;8518;53.236;10.384;2024-01-30T05:30:20;13.57;;;10.27;;
16800;SDS011;8518;53.236;10.384;2024-01-30T05:32:46;12.23;;;9.77;;
16800;SDS011;8518;53.236;10.384;2024-01-30T05:35:12;14.97;;;9.43;;
16800;SDS011;8518;53.236;10.384;2024-01-30T05:37:37;12.40;;;9.10;;
16800;SDS011;8518;53.236;10.384;2024-01-30T05:43:25;12.10;;;9.93;;
16800;SDS011;8518;53.236;10.384;2024-01-30T05:45:51;12.00;;;9.20;;
16800;SDS011;8518;53.236;10.384;2024-01-30T05:48:17;12.53;;;10.13;;
16800;SDS011;8518;53.236;10.384;2024-01-30T05:50:43;13.80;;;9.77;;
16800;SDS011;8518;53.236;10.384;2024-01-30T05:53:10;12.43;;;9.63;;
16800;SDS011;8518;53.236;10.384;2024-01-30T05:55:35;13.63;;;9.97;;
16800;SDS011;8518;53.236;10.384;2024-01-30T05:58:01;13.10;;;9.83;;
16800;SDS011;8518;53.236;10.384;2024-01-30T06:00:26;13.10;;;9.53;;
16800;SDS011;8518;53.236;10.384;2024-01-30T06:02:52;12.23;;;8.93;;
16800;SDS011;8518;53.236;10.384;2024-01-30T06:05:17;13.03;;;10.07;;
16800;SDS011;8518;53.236;10.384;2024-01-30T06:07:43;11.50;;;9.50;;
16800;SDS011;8518;53.236;10.384;2024-01-30T06:10:08;13.67;;;9.60;;
16800;SDS011;8518;53.236;10.384;2024-01-30T06:12:34;12.47;;;9.43;;
16800;SDS011;8518;53.236;10.384;2024-01-30T06:15:00;12.33;;;9.73;;
16800;SDS011;8518;53.236;10.384;2024-01-30T06:17:26;14.10;;;9.57;;
16800;SDS011;8518;53.236;10.384;2024-01-30T06:23:14;14.60;;;9.83;;
16800;SDS011;8518;53.236;10.384;2024-01-30T06:25:40;15.03;;;10.23;;
16800;SDS011;8518;53.236;10.384;2024-01-30T06:28:05;16.17;;;10.97;;
16800;SDS011;8518;53.236;10.384;2024-01-30T06:30:31;14.13;;;11.37;;
16800;SDS011;8518;53.236;10.384;2024-01-30T06:32:57;13.33;;;10.37;;
16800;SDS011;8518;53.236;10.384;2024-01-30T06:35:22;13.90;;;10.67;;
16800;SDS011;8518;53.236;10.384;2024-01-30T06:37:48;14.13;;;10.63;;
16800;SDS011;8518;53.236;10.384;2024-01-30T06:43:35;14.90;;;11.10;;
16800;SDS011;8518;53.236;10.384;2024-01-30T06:46:01;14.53;;;10.40;;
16800;SDS011;8518;53.236;10.384;2024-01-30T06:51:49;16.40;;;11.47;;
16800;SDS011;8518;53.236;10.384;2024-01-30T06:57:36;13.20;;;11.10;;
16800;SDS011;8518;53.236;10.384;2024-01-30T07:03:24;15.17;;;12.07;;
16800;SDS011;8518;53.236;10.384;2024-01-30T07:09:12;15.80;;;11.67;;
16800;SDS011;8518;53.236;10.384;2024-01-30T07:11:38;13.97;;;10.47;;
16800;SDS011;8518;53.236;10.384;2024-01-30T07:14:04;13.53;;;11.27;;
16800;SDS011;8518;53.236;10.384;2024-01-30T07:16:30;15.63;;;11.13;;
16800;SDS011;8518;53.236;10.384;2024-01-30T07:22:17;14.73;;;11.10;;
16800;SDS011;8518;53.236;10.384;2024-01-30T07:24:43;13.90;;;11.17;;
16800;SDS011;8518;53.236;10.384;2024-01-30T07:27:13;14.77;;;10.93;;
16800;SDS011;8518;53.236;10.384;2024-01-30T07:33:01;14.93;;;10.40;;
16800;SDS011;8518;53.236;10.384;2024-01-30T07:35:27;13.37;;;10.40;;
16800;SDS011;8518;53.236;10.384;2024-01-30T07:37:55;15.50;;;11.00;;
16800;SDS011;8518;53.236;10.384;2024-01-30T07:40:24;13.57;;;10.27;;
16800;SDS011;8518;53.236;10.384;2024-01-30T07:42:49;13.40;;;10.93;;
16800;SDS011;8518;53.236;10.384;2024-01-30T07:45:15;13.30;;;10.43;;
16800;SDS011;8518;53.236;10.384;2024-01-30T07:47:41;13.93;;;10.50;;
16800;SDS011;8518;53.236;10.384;2024-01-30T07:53:29;14.83;;;10.07;;
16800;SDS011;8518;53.236;10.384;2024-01-30T07:55:54;13.00;;;9.00;;
16800;SDS011;8518;53.236;10.384;2024-01-30T07:58:20;13.50;;;9.40;;
16800;SDS011;8518;53.236;10.384;2024-01-30T08:00:48;12.70;;;9.73;;
16800;SDS011;8518;53.236;10.384;2024-01-30T08:03:14;11.17;;;8.87;;
16800;SDS011;8518;53.236;10.384;2024-01-30T08:05:41;10.77;;;9.00;;
16800;SDS011;8518;53.236;10.384;2024-01-30T08:08:09;12.20;;;8.67;;
16800;SDS011;8518;53.236;10.384;2024-01-30T08:10:35;11.63;;;8.63;;
16800;SDS011;8518;53.236;10.384;2024-01-30T08:13:01;13.17;;;9.10;;
16800;SDS011;8518;53.236;10.384;2024-01-30T08:15:27;13.93;;;8.50;;
16800;SDS011;8518;53.236;10.384;2024-01-30T08:17:52;12.57;;;8.60;;
16800;SDS011;8518;53.236;10.384;2024-01-30T08:20:22;10.03;;;8.17;;
16800;SDS011;8518;53.236;10.384;2024-01-30T08:22:51;10.87;;;7.70;;
16800;SDS011;8518;53.236;10.384;2024-01-30T08:25:17;10.07;;;8.27;;
16800;SDS011;8518;53.236;10.384;2024-01-30T08:27:46;10.97;;;8.63;;
16800;SDS011;8518;53.236;10.384;2024-01-30T08:33:37;9.83;;;8.47;;
16800;SDS011;8518;53.236;10.384;2024-01-30T08:36:05;11.33;;;8.77;;
16800;SDS011;8518;53.236;10.384;2024-01-30T08:41:58;10.33;;;8.73;;
16800;SDS011;8518;53.236;10.384;2024-01-30T08:44:24;9.27;;;8.07;;
16800;SDS011;8518;53.236;10.384;2024-01-30T08:46:52;13.57;;;9.17;;
16800;SDS011;8518;53.236;10.384;2024-01-30T08:52:40;10.63;;;8.73;;
16800;SDS011;8518;53.236;10.384;2024-01-30T08:55:05;11.50;;;8.70;;
16800;SDS011;8518;53.236;10.384;2024-01-30T08:57:31;11.00;;;8.40;;
16800;SDS011;8518;53.236;10.384;2024-01-30T09:03:20;10.63;;;8.47;;
16800;SDS011;8518;53.236;10.384;2024-01-30T09:05:46;12.20;;;8.87;;
16800;SDS011;8518;53.236;10.384;2024-01-30T09:08:14;11.23;;;9.03;;
16800;SDS011;8518;53.236;10.384;2024-01-30T09:10:40;10.17;;;8.37;;
16800;SDS011;8518;53.236;10.384;2024-01-30T09:13:15;10.53;;;7.63;;
16800;SDS011;8518;53.236;10.384;2024-01-30T09:15:43;10.53;;;8.60;;
16800;SDS011;8518;53.236;10.384;2024-01-30T09:18:09;8.80;;;7.30;;
16800;SDS011;8518;53.236;10.384;2024-01-30T09:20:34;11.10;;;8.47;;
16800;SDS011;8518;53.236;10.384;2024-01-30T09:23:00;10.23;;;8.30;;
16800;SDS011;8518;53.236;10.384;2024-01-30T09:25:25;9.30;;;7.40;;
16800;SDS011;8518;53.236;10.384;2024-01-30T09:27:51;8.63;;;7.57;;
16800;SDS011;8518;53.236;10.384;2024-01-30T09:33:39;7.27;;;6.57;;
16800;SDS011;8518;53.236;10.384;2024-01-30T09:36:07;8.70;;;6.60;;
16800;SDS011;8518;53.236;10.384;2024-01-30T09:42:17;11.00;;;7.77;;
16800;SDS011;8518;53.236;10.384;2024-01-30T09:45:00;8.57;;;6.60;;
16800;SDS011;8518;53.236;10.384;2024-01-30T09:47:31;10.70;;;7.70;;
16800;SDS011;8518;53.236;10.384;2024-01-30T09:53:31;9.57;;;7.20;;
16800;SDS011;8518;53.236;10.384;2024-01-30T09:55:56;10.50;;;6.60;;
16800;SDS011;8518;53.236;10.384;2024-01-30T10:01:45;7.73;;;6.33;;
16800;SDS011;8518;53.236;10.384;2024-01-30T10:04:11;8.80;;;7.17;;
16800;SDS011;8518;53.236;10.384;2024-01-30T10:06:37;9.20;;;7.17;;
16800;SDS011;8518;53.236;10.384;2024-01-30T10:09:05;9.10;;;6.60;;
16800;SDS011;8518;53.236;10.384;2024-01-30T10:11:31;9.57;;;6.60;;
16800;SDS011;8518;53.236;10.384;2024-01-30T10:13:57;11.30;;;7.03;;
16800;SDS011;8518;53.236;10.384;2024-01-30T10:16:22;8.97;;;6.43;;
16800;SDS011;8518;53.236;10.384;2024-01-30T10:22:10;7.40;;;6.60;;
16800;SDS011;8518;53.236;10.384;2024-01-30T10:24:36;9.33;;;6.33;;
16800;SDS011;8518;53.236;10.384;2024-01-30T10:27:02;8.20;;;6.67;;
16800;SDS011;8518;53.236;10.384;2024-01-30T10:32:50;8.43;;;6.10;;
16800;SDS011;8518;53.236;10.384;2024-01-30T10:35:16;8.67;;;6.40;;
16800;SDS011;8518;53.236;10.384;2024-01-30T10:37:51;7.93;;;6.13;;
16800;SDS011;8518;53.236;10.384;2024-01-30T10:40:20;8.67;;;6.27;;
16800;SDS011;8518;53.236;10.384;2024-01-30T10:42:51;6.37;;;5.67;;
16800;SDS011;8518;53.236;10.384;2024-01-30T10:45:20;7.60;;;5.60;;
16800;SDS011;8518;53.236;10.384;2024-01-30T10:47:50;7.80;;;6.07;;
16800;SDS011;8518;53.236;10.384;2024-01-30T10:50:19;8.80;;;5.80;;
16800;SDS011;8518;53.236;10.384;2024-01-30T10:52:45;7.90;;;5.83;;
16800;SDS011;8518;53.236;10.384;2024-01-30T10:55:12;9.27;;;5.87;;
16800;SDS011;8518;53.236;10.384;2024-01-30T10:57:38;6.83;;;5.70;;
16800;SDS011;8518;53.236;10.384;2024-01-30T11:03:26;6.47;;;5.43;;
16800;SDS011;8518;53.236;10.384;2024-01-30T11:05:53;8.00;;;5.70;;
16800;SDS011;8518;53.236;10.384;2024-01-30T11:08:22;8.63;;;5.87;;
16800;SDS011;8518;53.236;10.384;2024-01-30T11:10:54;7.30;;;5.63;;
16800;SDS011;8518;53.236;10.384;2024-01-30T11:13:21;8.63;;;5.77;;
16800;SDS011;8518;53.236;10.384;2024-01-30T11:15:47;6.57;;;5.60;;
16800;SDS011;8518;53.236;10.384;2024-01-30T11:18:22;6.53;;;5.43;;
16800;SDS011;8518;53.236;10.384;2024-01-30T11:20:50;7.67;;;5.23;;
16800;SDS011;8518;53.236;10.384;2024-01-30T11:23:16;6.90;;;5.70;;
16800;SDS011;8518;53.236;10.384;2024-01-30T11:25:43;6.67;;;5.13;;
16800;SDS011;8518;53.236;10.384;2024-01-30T11:28:13;6.40;;;5.57;;
16800;SDS011;8518;53.236;10.384;2024-01-30T11:30:40;9.70;;;5.50;;
16800;SDS011;8518;53.236;10.384;2024-01-30T11:33:10;8.00;;;5.30;;
16800;SDS011;8518;53.236;10.384;2024-01-30T11:35:37;7.93;;;5.17;;
16800;SDS011;8518;53.236;10.384;2024-01-30T11:38:05;5.83;;;5.00;;
16800;SDS011;8518;53.236;10.384;2024-01-30T11:40:31;5.57;;;4.80;;
16800;SDS011;8518;53.236;10.384;2024-01-30T11:42:58;6.37;;;4.73;;
16800;SDS011;8518;53.236;10.384;2024-01-30T11:45:26;6.57;;;4.60;;
16800;SDS011;8518;53.236;10.384;2024-01-30T11:47:52;7.63;;;5.00;;
16800;SDS011;8518;53.236;10.384;2024-01-30T11:50:17;6.63;;;4.87;;
16800;SDS011;8518;53.236;10.384;2024-01-30T11:52:43;6.60;;;4.40;;
16800;SDS011;8518;53.236;10.384;2024-01-30T11:55:09;9.43;;;4.67;;
16800;SDS011;8518;53.236;10.384;2024-01-30T11:57:35;5.40;;;4.90;;
16800;SDS011;8518;53.236;10.384;2024-01-30T12:03:24;8.40;;;6.37;;
16800;SDS011;8518;53.236;10.384;2024-01-30T12:05:56;8.27;;;5.70;;
16800;SDS011;8518;53.236;10.384;2024-01-30T12:08:23;5.47;;;4.53;;
16800;SDS011;8518;53.236;10.384;2024-01-30T12:10:55;6.87;;;5.03;;
16800;SDS011;8518;53.236;10.384;2024-01-30T12:13:22;8.07;;;5.03;;
16800;SDS011;8518;53.236;10.384;2024-01-30T12:15:48;6.97;;;4.93;;
16800;SDS011;8518;53.236;10.384;2024-01-30T12:18:14;5.60;;;4.80;;
16800;SDS011;8518;53.236;10.384;2024-01-30T12:20:43;6.83;;;4.33;;
16800;SDS011;8518;53.236;10.384;2024-01-30T12:23:09;6.63;;;4.67;;
16800;SDS011;8518;53.236;10.384;2024-01-30T12:25:36;6.00;;;4.70;;
16800;SDS011;8518;53.236;10.384;2024-01-30T12:28:02;6.27;;;5.03;;
16800;SDS011;8518;53.236;10.384;2024-01-30T12:30:28;7.83;;;5.10;;
16800;SDS011;8518;53.236;10.384;2024-01-30T12:32:54;5.70;;;4.63;;
16800;SDS011;8518;53.236;10.384;2024-01-30T12:35:20;5.20;;;4.60;;
16800;SDS011;8518;53.236;10.384;2024-01-30T12:37:46;6.87;;;4.97;;
16800;SDS011;8518;53.236;10.384;2024-01-30T12:43:35;6.77;;;4.60;;
16800;SDS011;8518;53.236;10.384;2024-01-30T12:49:22;9.43;;;5.20;;
16800;SDS011;8518;53.236;10.384;2024-01-30T12:51:48;8.27;;;5.33;;
16800;SDS011;8518;53.236;10.384;2024-01-30T12:54:13;5.97;;;4.63;;
16800;SDS011;8518;53.236;10.384;2024-01-30T12:56:39;5.57;;;4.80;;
16800;SDS011;8518;53.236;10.384;2024-01-30T13:02:27;5.77;;;4.57;;
16800;SDS011;8518;53.236;10.384;2024-01-30T13:08:21;7.13;;;5.30;;
16800;SDS011;8518;53.236;10.384;2024-01-30T13:10:47;10.43;;;5.53;;
16800;SDS011;8518;53.236;10.384;2024-01-30T13:13:12;6.87;;;4.77;;
16800;SDS011;8518;53.236;10.384;2024-01-30T13:15:38;8.30;;;5.50;;
16800;SDS011;8518;53.236;10.384;2024-01-30T13:18:04;6.63;;;5.13;;
16800;SDS011;8518;53.236;10.384;2024-01-30T13:20:30;7.83;;;5.20;;
16800;SDS011;8518;53.236;10.384;2024-01-30T13:22:55;7.57;;;5.70;;
16800;SDS011;8518;53.236;10.384;2024-01-30T13:25:21;7.37;;;5.10;;
16800;SDS011;8518;53.236;10.384;2024-01-30T13:27:48;7.30;;;5.30;;
16800;SDS011;8518;53.236;10.384;2024-01-30T13:33:35;6.63;;;5.33;;
16800;SDS011;8518;53.236;10.384;2024-01-30T13:36:01;7.23;;;5.47;;
16800;SDS011;8518;53.236;10.384;2024-01-30T13:41:49;8.20;;;5.10;;
16800;SDS011;8518;53.236;10.384;2024-01-30T13:44:15;7.90;;;5.30;;
16800;SDS011;8518;53.236;10.384;2024-01-30T13:46:42;9.40;;;5.00;;
16800;SDS011;8518;53.236;10.384;2024-01-30T13:52:37;7.70;;;4.60;;
16800;SDS011;8518;53.236;10.384;2024-01-30T13:55:03;5.77;;;4.70;;
16800;SDS011;8518;53.236;10.384;2024-01-30T13:57:28;7.63;;;5.17;;
16800;SDS011;8518;53.236;10.384;2024-01-30T14:03:20;9.27;;;4.83;;
16800;SDS011;8518;53.236;10.384;2024-01-30T14:05:45;7.07;;;5.27;;
16800;SDS011;8518;53.236;10.384;2024-01-30T14:08:11;12.03;;;5.20;;
16800;SDS011;8518;53.236;10.384;2024-01-30T14:10:36;9.00;;;5.17;;
16800;SDS011;8518;53.236;10.384;2024-01-30T14:13:02;6.23;;;4.97;;
16800;SDS011;8518;53.236;10.384;2024-01-30T14:15:28;8.50;;;5.53;;
16800;SDS011;8518;53.236;10.384;2024-01-30T14:17:53;8.27;;;4.97;;
16800;SDS011;8518;53.236;10.384;2024-01-30T14:20:19;7.63;;;5.53;;
16800;SDS011;8518;53.236;10.384;2024-01-30T14:22:45;7.73;;;4.80;;
16800;SDS011;8518;53.236;10.384;2024-01-30T14:25:10;7.63;;;5.20;;
16800;SDS011;8518;53.236;10.384;2024-01-30T14:27:37;7.03;;;5.00;;
16800;SDS011;8518;53.236;10.384;2024-01-30T14:33:25;8.83;;;5.63;;
16800;SDS011;8518;53.236;10.384;2024-01-30T14:35:50;7.83;;;4.97;;
16800;SDS011;8518;53.236;10.384;2024-01-30T14:38:16;6.37;;;4.40;;
16800;SDS011;8518;53.236;10.384;2024-01-30T14:40:42;7.17;;;5.20;;
16800;SDS011;8518;53.236;10.384;2024-01-30T14:43:07;7.73;;;4.47;;
16800;SDS011;8518;53.236;10.384;2024-01-30T14:45:33;7.60;;;5.60;;
16800;SDS011;8518;53.236;10.384;2024-01-30T14:47:59;8.40;;;5.00;;
16800;SDS011;8518;53.236;10.384;2024-01-30T14:50:25;6.30;;;4.80;;
16800;SDS011;8518;53.236;10.384;2024-01-30T14:52:52;10.27;;;4.87;;
16800;SDS011;8518;53.236;10.384;2024-01-30T14:55:17;9.43;;;4.93;;
16800;SDS011;8518;53.236;10.384;2024-01-30T14:57:43;8.23;;;4.83;;
16800;SDS011;8518;53.236;10.384;2024-01-30T15:03:32;8.53;;;5.17;;
16800;SDS011;8518;53.236;10.384;2024-01-30T15:06:00;7.00;;;4.90;;
16800;SDS011;8518;53.236;10.384;2024-01-30T15:08:25;9.63;;;5.10;;
16800;SDS011;8518;53.236;10.384;2024-01-30T15:10:51;12.70;;;5.77;;
16800;SDS011;8518;53.236;10.384;2024-01-30T15:13:16;9.77;;;5.37;;
16800;SDS011;8518;53.236;10.384;2024-01-30T15:15:42;8.83;;;5.20;;
16800;SDS011;8518;53.236;10.384;2024-01-30T15:18:08;9.67;;;5.77;;
16800;SDS011;8518;53.236;10.384;2024-01-30T15:20:36;8.43;;;5.70;;
16800;SDS011;8518;53.236;10.384;2024-01-30T15:23:01;9.10;;;5.13;;
16800;SDS011;8518;53.236;10.384;2024-01-30T15:25:27;8.70;;;5.97;;
16800;SDS011;8518;53.236;10.384;2024-01-30T15:27:54;7.93;;;5.33;;
16800;SDS011;8518;53.236;10.384;2024-01-30T15:30:19;8.53;;;5.60;;
16800;SDS011;8518;53.236;10.384;2024-01-30T15:32:45;9.73;;;5.47;;
16800;SDS011;8518;53.236;10.384;2024-01-30T15:35:11;8.17;;;5.37;;
16800;SDS011;8518;53.236;10.384;2024-01-30T15:37:36;7.50;;;5.63;;
16800;SDS011;8518;53.236;10.384;2024-01-30T15:43:24;7.00;;;5.40;;
16800;SDS011;8518;53.236;10.384;2024-01-30T15:45:50;12.40;;;6.17;;
16800;SDS011;8518;53.236;10.384;2024-01-30T15:48:16;11.20;;;6.37;;
16800;SDS011;8518;53.236;10.384;2024-01-30T15:50:42;8.67;;;6.20;;
16800;SDS011;8518;53.236;10.384;2024-01-30T15:53:08;8.77;;;6.27;;
16800;SDS011;8518;53.236;10.384;2024-01-30T15:55:33;9.37;;;5.93;;
16800;SDS011;8518;53.236;10.384;2024-01-30T15:57:59;11.10;;;6.83;;
16800;SDS011;8518;53.236;10.384;2024-01-30T16:00:25;11.37;;;6.67;;
16800;SDS011;8518;53.236;10.384;2024-01-30T16:02:51;9.53;;;6.57;;
16800;SDS011;8518;53.236;10.384;2024-01-30T16:05:17;10.17;;;6.17;;
16800;SDS011;8518;53.236;10.384;2024-01-30T16:07:43;8.33;;;6.00;;
16800;SDS011;8518;53.236;10.384;2024-01-30T16:10:08;9.27;;;6.10;;
16800;SDS011;8518;53.236;10.384;2024-01-30T16:12:41;11.17;;;6.80;;
16800;SDS011;8518;53.236;10.384;2024-01-30T16:15:12;9.83;;;6.37;;
16800;SDS011;8518;53.236;10.384;2024-01-30T16:17:38;10.83;;;6.90;;
16800;SDS011;8518;53.236;10.384;2024-01-30T16:23:26;10.17;;;6.73;;
16800;SDS011;8518;53.236;10.384;2024-01-30T16:25:52;10.70;;;6.73;;
16800;SDS011;8518;53.236;10.384;2024-01-30T16:28:18;10.97;;;6.40;;
16800;SDS011;8518;53.236;10.384;2024-01-30T16:30:44;8.50;;;6.43;;
16800;SDS011;8518;53.236;10.384;2024-01-30T16:33:10;9.90;;;6.67;;
16800;SDS011;8518;53.236;10.384;2024-01-30T16:35:36;11.20;;;7.20;;
16800;SDS011;8518;53.236;10.384;2024-01-30T16:38:02;8.73;;;7.30;;
16800;SDS011;8518;53.236;10.384;2024-01-30T16:40:28;12.20;;;7.70;;
16800;SDS011;8518;53.236;10.384;2024-01-30T16:42:54;9.73;;;7.03;;
16800;SDS011;8518;53.236;10.384;2024-01-30T16:45:20;10.40;;;7.40;;
16800;SDS011;8518;53.236;10.384;2024-01-30T16:47:46;8.03;;;7.00;;
16800;SDS011;8518;53.236;10.384;2024-01-30T16:53:34;9.77;;;6.83;;
16800;SDS011;8518;53.236;10.384;2024-01-30T16:56:01;8.63;;;6.47;;
16800;SDS011;8518;53.236;10.384;2024-01-30T17:01:49;10.53;;;6.57;;
16800;SDS011;8518;53.236;10.384;2024-01-30T17:04:15;11.93;;;7.27;;
16800;SDS011;8518;53.236;10.384;2024-01-30T17:06:46;12.67;;;6.83;;
16800;SDS011;8518;53.236;10.384;2024-01-30T17:09:11;7.93;;;6.80;;
16800;SDS011;8518;53.236;10.384;2024-01-30T17:11:39;12.63;;;7.70;;
16800;SDS011;8518;53.236;10.384;2024-01-30T17:14:05;10.00;;;7.43;;
16800;SDS011;8518;53.236;10.384;2024-01-30T17:16:31;9.03;;;7.47;;
16800;SDS011;8518;53.236;10.384;2024-01-30T17:22:18;14.23;;;7.83;;
16800;SDS011;8518;53.236;10.384;2024-01-30T17:28:07;9.70;;;7.70;;